Time;durP1;ratioP1;P1;durP2;ratioP2;P2;SDS_P1;SDS_P2;PMS_P1;PMS_P2;Temp;Humidity;BMP_temperature;BMP_pressure;BME280_temperature;BME280_humidity;BME280_pressure;Samples;Min_cycle;Max_cycle;Signal;HPM_P1;HPM_P2
2023/04/17 13:34:36;;;;;;;16.13;14.90;;;16.70;99.90;;;;;;5049784;23;20057;-87
2023/04/17 13:37:03;;;;;;;14.85;13.95;;;16.50;99.90;;;;;;4865750;29;20060;-89
2023/04/17 13:39:29;;;;;;;15.45;14.38;;;16.40;99.90;;;;;;4866882;29;20029;-88
2023/04/17 13:41:56;;;;;;;15.20;14.30;;;15.90;99.90;;;;;;4866198;29;20501;-88
2023/04/17 13:44:24;;;;;;;15.13;13.75;;;16.00;99.90;;;;;;4863613;29;20549;-89
2023/04/17 13:46:50;;;;;;;15.23;14.05;;;15.90;99.90;;;;;;4884737;29;20044;-88
2023/04/17 13:49:16;;;;;;;14.70;13.80;;;15.70;99.90;;;;;;4884372;29;20028;-89
2023/04/17 13:51:43;;;;;;;15.18;14.27;;;15.70;99.90;;;;;;4884128;29;20042;-88
2023/04/17 13:54:09;;;;;;;14.82;13.93;;;15.60;99.90;;;;;;4885064;29;20035;-88
2023/04/17 13:56:36;;;;;;;15.10;14.20;;;15.70;99.90;;;;;;4884126;29;20466;-88
2023/04/17 13:59:05;;;;;;;15.93;14.93;;;15.70;99.90;;;;;;4883910;29;20029;-88
2023/04/17 14:01:32;;;;;;;15.90;14.90;;;15.90;99.90;;;;;;4883797;29;20056;-88
2023/04/17 14:04:01;;;;;;;15.50;14.50;;;16.10;99.90;;;;;;4883626;29;20029;-90
2023/04/17 14:06:30;;;;;;;15.55;14.65;;;16.10;99.90;;;;;;4883490;29;20414;-88
2023/04/17 14:08:57;;;;;;;15.43;14.23;;;15.80;99.90;;;;;;4883743;29;20029;-88
2023/04/17 14:11:26;;;;;;;15.65;14.65;;;15.80;99.90;;;;;;4883653;29;20032;-88
2023/04/17 14:13:53;;;;;;;16.25;15.27;;;15.90;99.90;;;;;;4884302;29;20028;-90
2023/04/17 14:16:20;;;;;;;16.25;15.07;;;16.00;99.90;;;;;;4883739;29;20028;-90
2023/04/17 14:18:48;;;;;;;16.50;15.50;;;16.00;99.90;;;;;;4883525;29;20031;-90
2023/04/17 14:21:20;;;;;;;17.42;16.13;;;16.00;99.90;;;;;;4883834;29;20075;-89
2023/04/17 14:23:55;;;;;;;17.85;16.58;;;15.90;99.90;;;;;;4883501;29;20035;-88
2023/04/17 14:26:22;;;;;;;17.45;16.55;;;16.10;99.90;;;;;;4886396;29;20044;-90
2023/04/17 14:28:48;;;;;;;19.63;17.55;;;16.10;99.90;;;;;;4883674;29;20486;-90
2023/04/17 14:31:15;;;;;;;18.17;16.92;;;16.00;99.90;;;;;;4883408;29;20083;-88
2023/04/17 14:33:41;;;;;;;18.17;16.60;;;16.10;99.90;;;;;;4876428;29;20049;-89
2023/04/17 14:36:07;;;;;;;16.90;15.73;;;15.90;99.90;;;;;;4865009;29;20060;-88
2023/04/17 14:38:37;;;;;;;17.05;15.50;;;15.90;99.90;;;;;;4866244;29;20025;-89
2023/04/17 14:41:03;;;;;;;15.50;14.60;;;15.70;99.90;;;;;;4865390;29;20084;-91
2023/04/17 14:43:33;;;;;;;16.20;14.98;;;15.50;99.90;;;;;;4850045;29;20029;-91
2023/04/17 14:46:00;;;;;;;15.88;14.77;;;15.70;99.90;;;;;;4864751;29;20037;-90
2023/04/17 14:48:28;;;;;;;16.13;14.93;;;15.80;99.90;;;;;;4864455;29;20035;-87
2023/04/17 14:50:55;;;;;;;16.42;15.07;;;15.80;99.90;;;;;;4864976;29;20033;-88
2023/04/17 14:53:22;;;;;;;16.52;14.98;;;15.80;99.90;;;;;;4864333;29;20096;-88
2023/04/17 14:55:48;;;;;;;15.27;14.25;;;15.80;99.90;;;;;;4864297;29;20483;-88
2023/04/17 14:58:15;;;;;;;15.85;14.75;;;15.70;99.90;;;;;;4864207;29;20082;-89
2023/04/17 15:00:42;;;;;;;15.57;14.20;;;15.70;99.90;;;;;;4864118;29;20032;-88
2023/04/17 15:03:08;;;;;;;13.90;12.80;;;15.50;99.90;;;;;;4866385;29;20085;-87
2023/04/17 15:05:35;;;;;;;12.77;11.88;;;15.20;99.90;;;;;;4864449;29;20056;-89
2023/04/17 15:08:01;;;;;;;13.35;11.43;;;15.20;99.90;;;;;;4864232;29;20128;-91
2023/04/17 15:10:30;;;;;;;12.23;11.00;;;15.10;99.90;;;;;;4864570;29;20073;-89
2023/04/17 15:12:59;;;;;;;11.30;10.43;;;15.00;99.90;;;;;;4863976;29;20039;-88
2023/04/17 15:15:27;;;;;;;11.88;10.70;;;14.90;99.90;;;;;;4864034;29;20037;-89
2023/04/17 15:17:56;;;;;;;10.85;10.10;;;15.00;99.90;;;;;;4863836;29;20491;-90
2023/04/17 15:20:24;;;;;;;10.55;9.65;;;15.00;99.90;;;;;;4863878;29;20051;-89
2023/04/17 15:22:52;;;;;;;10.13;9.32;;;15.00;99.90;;;;;;4863762;29;20057;-90
2023/04/17 15:25:19;;;;;;;9.73;8.85;;;15.00;99.90;;;;;;4863805;29;20047;-91
2023/04/17 15:27:45;;;;;;;9.55;8.75;;;14.90;99.90;;;;;;4864138;29;20049;-87
2023/04/17 15:30:12;;;;;;;10.70;9.70;;;15.00;99.90;;;;;;4863904;29;20037;-90
2023/04/17 15:32:40;;;;;;;11.40;10.60;;;15.10;99.90;;;;;;4864229;29;20033;-90
2023/04/17 15:35:08;;;;;;;11.45;10.63;;;15.20;99.90;;;;;;4845107;29;20121;-90
2023/04/17 15:37:35;;;;;;;11.95;11.10;;;15.30;99.90;;;;;;4830406;29;20046;-88
2023/04/17 15:40:02;;;;;;;12.70;11.45;;;15.50;99.90;;;;;;4830144;29;20518;-91
2023/04/17 15:42:29;;;;;;;13.35;12.40;;;15.60;99.90;;;;;;4845285;29;20050;-90
2023/04/17 15:44:56;;;;;;;13.50;12.40;;;15.80;99.90;;;;;;4830127;29;20030;-89
2023/04/17 15:47:23;;;;;;;14.48;13.15;;;15.90;99.90;;;;;;4830192;29;20419;-89
2023/04/17 15:49:49;;;;;;;14.15;13.10;;;16.10;99.90;;;;;;4845308;29;20030;-89
2023/04/17 15:52:16;;;;;;;15.25;13.80;;;16.20;99.90;;;;;;4845156;29;20033;-89
2023/04/17 15:54:42;;;;;;;14.07;13.07;;;16.10;99.90;;;;;;4829946;29;20034;-89
2023/04/17 15:57:08;;;;;;;14.30;13.32;;;15.90;99.90;;;;;;4845118;29;20057;-89
2023/04/17 15:59:34;;;;;;;14.45;13.25;;;15.90;99.90;;;;;;4830823;29;20156;-90
2023/04/17 16:02:01;;;;;;;14.43;13.23;;;15.70;99.90;;;;;;4833498;29;20069;-90
2023/04/17 16:04:27;;;;;;;14.43;13.10;;;15.70;99.90;;;;;;4849076;29;20098;-91
2023/04/17 16:06:53;;;;;;;15.88;14.52;;;15.70;99.90;;;;;;4848624;29;20041;-91
2023/04/17 16:09:23;;;;;;;14.38;13.00;;;15.90;99.90;;;;;;4833317;29;20030;-91
2023/04/17 16:11:50;;;;;;;14.55;13.38;;;15.70;99.90;;;;;;4850072;29;20483;-90
2023/04/17 16:14:17;;;;;;;13.82;12.82;;;15.40;99.90;;;;;;4833102;29;20073;-91
2023/04/17 16:16:43;;;;;;;13.88;12.68;;;15.20;99.90;;;;;;4848357;29;20501;-90
2023/04/17 16:19:10;;;;;;;14.23;12.80;;;15.20;99.90;;;;;;4832953;29;20041;-90
2023/04/17 16:21:37;;;;;;;14.77;13.43;;;15.00;99.90;;;;;;4848423;29;20105;-90
2023/04/17 16:24:04;;;;;;;14.60;13.20;;;14.70;99.90;;;;;;4833112;29;20089;-90
2023/04/17 16:26:30;;;;;;;14.20;13.05;;;14.60;99.90;;;;;;4832785;29;20104;-91
2023/04/17 16:28:57;;;;;;;16.25;12.48;;;14.50;99.90;;;;;;4848175;29;20044;-93
2023/04/17 16:31:27;;;;;;;13.80;12.60;;;14.30;99.90;;;;;;4848108;29;20135;-90
2023/04/17 16:33:54;;;;;;;12.82;11.73;;;14.30;99.90;;;;;;4842289;29;20143;-91
2023/04/17 16:36:20;;;;;;;13.00;11.68;;;14.20;99.90;;;;;;4851130;29;20025;-90
2023/04/17 16:38:47;;;;;;;12.48;11.25;;;14.10;99.90;;;;;;4866589;29;20037;-93
2023/04/17 16:41:14;;;;;;;10.93;9.85;;;14.00;99.90;;;;;;4851322;29;20033;-91
2023/04/17 16:43:41;;;;;;;10.65;9.57;;;13.90;99.90;;;;;;4866683;29;20037;-92
2023/04/17 16:46:08;;;;;;;10.10;9.23;;;13.80;99.90;;;;;;4853685;29;20029;-91
2023/04/17 16:48:34;;;;;;;10.20;9.18;;;13.80;99.90;;;;;;4868337;29;20079;-90
2023/04/17 16:51:04;;;;;;;9.23;8.32;;;13.80;99.90;;;;;;4869513;29;20482;-91
2023/04/17 16:53:31;;;;;;;8.80;8.05;;;13.80;99.90;;;;;;4885763;29;20431;-91
2023/04/17 16:55:58;;;;;;;9.45;8.02;;;13.80;99.90;;;;;;4884815;29;20040;-90
2023/04/17 16:58:24;;;;;;;16.80;7.72;;;13.90;99.90;;;;;;4884751;29;20132;-90
2023/04/17 17:00:51;;;;;;;7.97;7.10;;;13.80;99.90;;;;;;4885415;29;20056;-90
2023/04/17 17:03:18;;;;;;;12.23;7.68;;;13.80;99.90;;;;;;4885559;29;20070;-91
2023/04/17 17:05:44;;;;;;;10.40;7.68;;;13.80;99.90;;;;;;4884717;29;20490;-90
2023/04/17 17:08:13;;;;;;;8.43;7.60;;;13.80;99.90;;;;;;4884456;29;20128;-89
2023/04/17 17:10:39;;;;;;;8.45;7.00;;;13.80;99.90;;;;;;4884441;29;20123;-91
2023/04/17 17:13:06;;;;;;;10.18;7.30;;;13.70;99.90;;;;;;4884075;29;20112;-92
2023/04/17 17:15:32;;;;;;;12.43;7.57;;;13.70;99.90;;;;;;4884492;29;20553;-91
2023/04/17 17:17:59;;;;;;;14.95;7.22;;;13.60;99.90;;;;;;4884338;29;20044;-91
2023/04/17 17:20:28;;;;;;;14.82;7.38;;;13.60;99.90;;;;;;4884509;29;20037;-92
2023/04/17 17:22:58;;;;;;;15.07;7.70;;;13.50;99.90;;;;;;4884297;29;20123;-92
2023/04/17 17:25:24;;;;;;;11.50;7.50;;;13.50;99.90;;;;;;4885221;29;20100;-91
2023/04/17 17:27:50;;;;;;;10.23;6.55;;;13.50;99.90;;;;;;4891758;29;20044;-89
2023/04/17 17:30:17;;;;;;;7.55;6.53;;;13.50;99.90;;;;;;4884263;29;20111;-91
2023/04/17 17:32:46;;;;;;;9.55;5.70;;;13.30;99.90;;;;;;4883902;29;20033;-90
2023/04/17 17:35:13;;;;;;;16.35;6.40;;;13.30;99.90;;;;;;4884239;29;20073;-91
2023/04/17 17:37:41;;;;;;;12.43;6.88;;;13.20;99.90;;;;;;4884154;29;20051;-92
2023/04/17 17:40:09;;;;;;;13.38;6.97;;;13.20;99.90;;;;;;4868684;29;20033;-90
2023/04/17 17:42:35;;;;;;;11.82;5.78;;;13.10;99.90;;;;;;4883883;29;20044;-89
2023/04/17 17:45:02;;;;;;;15.88;6.75;;;13.10;99.90;;;;;;4884137;29;20111;-89
2023/04/17 17:47:28;;;;;;;12.05;6.25;;;13.10;99.90;;;;;;4883747;29;20041;-91
2023/04/17 17:49:55;;;;;;;14.23;8.32;;;13.00;99.90;;;;;;4883868;29;20389;-92
2023/04/17 17:52:21;;;;;;;14.77;8.13;;;13.10;99.90;;;;;;4883978;29;20060;-91
2023/04/17 17:54:47;;;;;;;15.20;10.00;;;13.00;99.90;;;;;;4884523;29;20024;-91
2023/04/17 17:57:14;;;;;;;18.67;8.52;;;13.00;99.90;;;;;;4884419;29;20028;-90
2023/04/17 17:59:44;;;;;;;15.55;8.50;;;13.10;99.90;;;;;;4884165;29;20036;-92
2023/04/17 18:02:10;;;;;;;14.75;7.63;;;13.10;99.90;;;;;;4884479;29;20040;-92
2023/04/17 18:04:37;;;;;;;16.70;8.35;;;13.10;99.90;;;;;;4884382;29;20115;-91
2023/04/17 18:07:03;;;;;;;17.98;9.52;;;13.10;99.90;;;;;;4883977;29;20044;-90
2023/04/17 18:09:29;;;;;;;14.02;8.73;;;13.10;99.90;;;;;;4884056;29;20043;-88
2023/04/17 18:11:56;;;;;;;20.67;9.23;;;13.00;99.90;;;;;;4884160;29;20088;-91
2023/04/17 18:14:22;;;;;;;21.55;10.60;;;13.00;99.90;;;;;;4883899;29;20084;-91
2023/04/17 18:16:49;;;;;;;18.35;11.05;;;13.00;99.90;;;;;;4884194;29;20044;-90
2023/04/17 18:19:16;;;;;;;22.48;10.95;;;13.00;99.90;;;;;;4883887;29;20028;-90
2023/04/17 18:21:42;;;;;;;22.70;11.50;;;13.00;99.90;;;;;;4883769;29;20081;-93
2023/04/17 18:24:09;;;;;;;18.52;9.27;;;13.00;99.90;;;;;;4883123;29;20039;-89
2023/04/17 18:26:36;;;;;;;15.52;8.18;;;13.00;99.90;;;;;;4883385;29;20044;-92
2023/04/17 18:29:02;;;;;;;57.67;31.13;;;13.00;99.90;;;;;;4883509;29;20084;-90
2023/04/17 18:31:29;;;;;;;13.32;8.35;;;13.00;99.90;;;;;;4883689;29;20029;-89
2023/04/17 18:33:55;;;;;;;18.58;10.10;;;12.90;99.90;;;;;;4880715;29;20061;-92
2023/04/17 18:36:21;;;;;;;17.13;9.52;;;13.00;99.90;;;;;;4881227;29;20037;-92
2023/04/17 18:38:48;;;;;;;14.18;9.35;;;12.90;99.90;;;;;;4880403;29;20038;-92
2023/04/17 18:41:14;;;;;;;13.90;8.10;;;12.80;99.90;;;;;;4880745;29;20029;-89
2023/04/17 18:43:41;;;;;;;21.83;11.80;;;12.90;99.90;;;;;;4882629;29;20029;-91
2023/04/17 18:46:08;;;;;;;14.73;9.57;;;12.80;99.90;;;;;;4880239;29;20088;-90
2023/04/17 18:48:35;;;;;;;16.70;8.95;;;12.70;99.90;;;;;;4880468;29;20036;-90
2023/04/17 18:51:09;;;;;;;20.50;10.60;;;12.70;99.90;;;;;;4880311;29;20029;-90
2023/04/17 18:53:36;;;;;;;42.60;25.98;;;12.70;99.90;;;;;;4880541;29;20060;-88
2023/04/17 18:56:07;;;;;;;15.90;9.15;;;12.70;99.90;;;;;;4880442;29;20053;-89
2023/04/17 18:58:33;;;;;;;17.67;11.18;;;12.70;99.90;;;;;;4880298;29;20029;-89
2023/04/17 19:01:00;;;;;;;16.85;9.18;;;12.70;99.90;;;;;;4880153;29;20029;-89
2023/04/17 19:03:26;;;;;;;18.38;9.63;;;12.70;99.90;;;;;;4880255;29;20033;-89
2023/04/17 19:05:52;;;;;;;15.43;9.77;;;12.70;99.90;;;;;;4880337;29;20060;-90
2023/04/17 19:08:19;;;;;;;14.85;9.85;;;12.70;99.90;;;;;;4880277;29;20052;-88
2023/04/17 19:10:45;;;;;;;15.07;9.25;;;12.70;99.90;;;;;;4880145;29;20036;-88
2023/04/17 19:13:12;;;;;;;25.13;13.65;;;12.70;99.90;;;;;;4880960;29;20431;-91
2023/04/17 19:15:38;;;;;;;16.23;11.27;;;12.70;99.90;;;;;;4880902;29;20026;-90
2023/04/17 19:18:07;;;;;;;19.55;12.60;;;12.80;99.90;;;;;;4881651;29;20037;-89
2023/04/17 19:20:35;;;;;;;26.33;14.00;;;12.80;99.90;;;;;;4880340;29;20032;-88
2023/04/17 19:23:02;;;;;;;22.90;15.02;;;12.80;99.90;;;;;;4880079;29;20052;-90
2023/04/17 19:25:30;;;;;;;19.55;13.65;;;12.80;99.90;;;;;;4845110;29;20026;-89
2023/04/17 19:28:00;;;;;;;24.58;16.27;;;12.90;99.90;;;;;;4858783;29;20182;-90
2023/04/17 19:30:26;;;;;;;20.52;12.50;;;12.90;99.90;;;;;;4858593;29;20030;-88
2023/04/17 19:32:53;;;;;;;18.80;12.30;;;12.80;99.90;;;;;;4859837;29;20495;-90
2023/04/17 19:35:19;;;;;;;23.25;13.82;;;12.90;99.90;;;;;;4863836;29;20053;-89
2023/04/17 19:37:46;;;;;;;30.17;17.88;;;12.90;99.90;;;;;;4865364;29;20056;-89
2023/04/17 19:40:15;;;;;;;28.67;15.70;;;12.80;99.90;;;;;;4865403;29;20034;-91
2023/04/17 19:42:42;;;;;;;22.80;13.90;;;12.90;99.90;;;;;;4865495;29;20034;-90
2023/04/17 19:45:09;;;;;;;25.17;15.25;;;12.90;99.90;;;;;;4865508;29;20052;-88
2023/04/17 19:47:38;;;;;;;23.95;16.05;;;12.90;99.90;;;;;;4865116;29;20041;-89
2023/04/17 19:50:09;;;;;;;19.38;13.60;;;12.90;99.90;;;;;;4865027;29;20034;-90
2023/04/17 19:52:41;;;;;;;23.45;13.40;;;12.90;99.90;;;;;;4865043;29;20496;-89
2023/04/17 19:55:08;;;;;;;21.30;12.50;;;12.90;99.90;;;;;;4849949;29;20124;-89
2023/04/17 19:57:37;;;;;;;19.42;12.13;;;12.90;99.90;;;;;;4864991;29;20124;-89
2023/04/17 20:00:06;;;;;;;20.38;11.50;;;12.80;99.90;;;;;;4865231;29;20107;-87
2023/04/17 20:02:39;;;;;;;16.70;10.68;;;12.80;99.90;;;;;;4865279;29;20049;-89
2023/04/17 20:05:07;;;;;;;14.85;10.07;;;12.80;99.90;;;;;;4865124;29;20041;-88
2023/04/17 20:07:34;;;;;;;22.13;10.60;;;12.80;99.90;;;;;;4864920;29;20042;-89
2023/04/17 20:10:01;;;;;;;22.80;11.68;;;12.70;99.90;;;;;;4864640;29;20037;-87
2023/04/17 20:12:28;;;;;;;17.15;9.85;;;12.70;99.90;;;;;;4864791;29;20037;-88
2023/04/17 20:14:54;;;;;;;17.10;11.85;;;12.70;99.90;;;;;;4865538;29;20029;-90
2023/04/17 20:17:21;;;;;;;13.95;6.70;;;12.70;99.90;;;;;;4864771;29;20193;-91
2023/04/17 20:19:48;;;;;;;8.23;5.55;;;12.60;99.90;;;;;;4864786;29;20040;-87
2023/04/17 20:22:15;;;;;;;11.55;5.43;;;12.70;99.90;;;;;;4849214;29;20041;-89
2023/04/17 20:24:42;;;;;;;10.05;3.50;;;12.60;99.90;;;;;;4864558;29;20044;-89
2023/04/17 20:27:08;;;;;;;10.15;3.60;;;12.50;99.90;;;;;;4848906;29;20037;-88
2023/04/17 20:29:35;;;;;;;6.82;2.90;;;12.50;99.90;;;;;;4865250;29;20033;-88
2023/04/17 20:32:01;;;;;;;8.05;3.13;;;12.50;99.90;;;;;;4865109;29;20490;-89
2023/04/17 20:34:33;;;;;;;9.70;3.13;;;12.50;99.90;;;;;;4861624;29;20119;-89
2023/04/17 20:37:00;;;;;;;7.35;2.97;;;12.40;99.90;;;;;;4861468;29;20033;-88
2023/04/17 20:39:27;;;;;;;11.82;2.70;;;12.30;99.90;;;;;;4861304;29;20026;-88
2023/04/17 20:41:54;;;;;;;8.50;3.28;;;12.30;99.90;;;;;;4854418;29;20043;-88
2023/04/17 20:44:21;;;;;;;11.52;2.60;;;12.20;99.90;;;;;;4867401;29;20072;-89
2023/04/17 20:46:48;;;;;;;8.23;2.45;;;12.20;99.90;;;;;;4866046;29;20479;-89
2023/04/17 20:49:15;;;;;;;16.45;3.03;;;12.30;99.90;;;;;;4867087;29;20043;-92
2023/04/17 20:51:41;;;;;;;8.18;2.40;;;12.20;99.90;;;;;;4867602;29;20037;-90
2023/04/17 20:54:08;;;;;;;10.95;2.67;;;12.20;99.90;;;;;;4864386;29;20022;-90
2023/04/17 20:56:34;;;;;;;17.33;3.15;;;12.20;99.90;;;;;;4864366;29;20036;-89
2023/04/17 20:59:00;;;;;;;11.25;2.60;;;12.30;99.90;;;;;;4863976;29;20026;-88
2023/04/17 21:01:30;;;;;;;17.23;3.17;;;12.20;99.90;;;;;;4863948;29;20458;-89
2023/04/17 21:03:57;;;;;;;7.75;2.05;;;12.10;99.90;;;;;;4864709;29;20044;-89
2023/04/17 21:06:25;;;;;;;5.85;2.22;;;12.00;99.90;;;;;;4864342;29;20069;-90
2023/04/17 21:08:52;;;;;;;6.90;2.05;;;11.90;99.90;;;;;;4864214;29;20030;-89
2023/04/17 21:11:20;;;;;;;7.05;2.05;;;11.80;99.90;;;;;;4849216;29;20034;-87
2023/04/17 21:13:47;;;;;;;7.88;2.00;;;11.70;99.90;;;;;;4848383;29;20121;-88
2023/04/17 21:16:14;;;;;;;5.60;1.80;;;11.60;99.90;;;;;;4864092;29;20029;-89
2023/04/17 21:18:40;;;;;;;4.88;1.88;;;11.60;99.90;;;;;;4864074;29;20569;-90
2023/04/17 21:21:07;;;;;;;9.70;2.20;;;11.50;99.90;;;;;;4864859;29;20034;-90
2023/04/17 21:23:33;;;;;;;4.80;1.83;;;11.50;99.90;;;;;;4864602;29;20120;-89
2023/04/17 21:26:00;;;;;;;10.93;2.53;;;11.50;99.90;;;;;;4864701;29;20033;-89
2023/04/17 21:28:26;;;;;;;6.15;1.55;;;11.50;99.90;;;;;;4863236;29;20062;-88
2023/04/17 21:30:57;;;;;;;4.35;2.13;;;11.40;99.90;;;;;;4862661;29;20045;-91
2023/04/17 21:33:24;;;;;;;4.50;1.70;;;11.40;99.90;;;;;;4865235;29;20116;-91
2023/04/17 21:35:50;;;;;;;5.50;1.52;;;11.40;99.90;;;;;;4865779;29;20044;-91
2023/04/17 21:38:17;;;;;;;7.20;1.75;;;11.40;99.90;;;;;;4865777;29;20080;-90
2023/04/17 21:40:43;;;;;;;13.07;2.03;;;11.40;99.90;;;;;;4865595;29;20115;-89
2023/04/17 21:43:10;;;;;;;10.30;2.33;;;11.40;99.90;;;;;;4865477;29;20029;-91
2023/04/17 21:45:36;;;;;;;9.80;2.13;;;11.40;99.90;;;;;;4865534;29;20376;-90
2023/04/17 21:48:03;;;;;;;6.15;1.90;;;11.40;99.90;;;;;;4865484;29;20045;-91
2023/04/17 21:50:29;;;;;;;8.45;1.75;;;11.40;99.90;;;;;;4865950;29;20029;-89
2023/04/17 21:52:56;;;;;;;9.13;1.88;;;11.30;99.90;;;;;;4865311;29;20081;-90
2023/04/17 21:55:22;;;;;;;4.65;1.80;;;11.40;99.90;;;;;;4865327;29;20036;-90
2023/04/17 21:58:32;;;;;;;5.45;1.90;;;11.30;99.90;;;;;;4865309;29;20037;-90
2023/04/17 22:01:00;;;;;;;4.28;1.70;;;11.40;99.90;;;;;;4865717;29;20030;-90
2023/04/17 22:03:30;;;;;;;5.80;2.00;;;11.30;99.90;;;;;;4861712;29;20060;-92
2023/04/17 22:05:56;;;;;;;5.55;1.90;;;11.40;99.90;;;;;;4846274;29;20167;-90
2023/04/17 22:08:24;;;;;;;3.45;1.70;;;11.30;99.90;;;;;;4861376;29;20049;-90
2023/04/17 22:10:53;;;;;;;8.25;2.03;;;11.40;99.90;;;;;;4861229;29;20544;-90
2023/04/17 22:13:20;;;;;;;5.20;1.80;;;11.40;99.90;;;;;;4861288;29;20531;-90
2023/04/17 22:15:48;;;;;;;6.28;1.95;;;11.40;99.90;;;;;;4861267;29;20037;-90
2023/04/17 22:18:14;;;;;;;4.70;1.80;;;11.40;99.90;;;;;;4861368;29;20373;-91
2023/04/17 22:20:41;;;;;;;4.57;1.88;;;11.40;99.90;;;;;;4861177;29;20029;-93
2023/04/17 22:23:07;;;;;;;4.07;1.73;;;11.40;99.90;;;;;;4861150;29;20452;-89
2023/04/17 22:25:35;;;;;;;2.10;1.75;;;11.40;99.90;;;;;;4861047;29;20029;-91
2023/04/17 22:28:01;;;;;;;7.93;1.95;;;11.40;99.90;;;;;;4860909;29;20046;-89
2023/04/17 22:30:28;;;;;;;4.22;1.70;;;11.40;99.90;;;;;;4860960;29;20057;-91
2023/04/17 22:32:56;;;;;;;9.10;1.92;;;11.40;99.90;;;;;;4860556;29;20029;-90
2023/04/17 22:35:22;;;;;;;7.70;1.95;;;11.40;99.90;;;;;;4864734;29;20104;-89
2023/04/17 22:37:49;;;;;;;4.18;2.10;;;11.40;99.90;;;;;;4864878;29;20513;-89
2023/04/17 22:40:15;;;;;;;6.38;2.00;;;11.40;99.90;;;;;;4864570;29;20411;-90
2023/04/17 22:42:42;;;;;;;3.60;1.88;;;11.40;99.90;;;;;;4864535;29;20124;-90
2023/04/17 22:45:09;;;;;;;6.57;2.53;;;11.40;99.90;;;;;;4864430;29;20029;-88
2023/04/17 22:47:36;;;;;;;6.60;1.90;;;11.40;99.90;;;;;;4864430;29;20569;-91
2023/04/17 22:50:03;;;;;;;4.05;1.98;;;11.40;99.90;;;;;;4865034;29;20033;-90
2023/04/17 22:52:30;;;;;;;4.47;2.15;;;11.40;99.90;;;;;;4864466;29;20071;-90
2023/04/17 22:54:56;;;;;;;3.10;1.90;;;11.40;99.90;;;;;;4864324;29;20108;-89
2023/04/17 22:57:22;;;;;;;8.85;2.75;;;11.50;99.90;;;;;;4864574;29;20037;-89
2023/04/17 22:59:49;;;;;;;6.57;2.38;;;11.50;99.90;;;;;;4864353;29;20030;-91
2023/04/17 23:02:15;;;;;;;3.42;1.70;;;11.50;99.90;;;;;;4864313;29;20041;-88
2023/04/17 23:04:42;;;;;;;6.82;1.75;;;11.50;99.90;;;;;;4864220;29;20057;-91
2023/04/17 23:07:09;;;;;;;8.80;2.20;;;11.50;99.90;;;;;;4864074;29;20043;-89
2023/04/17 23:09:35;;;;;;;5.40;2.10;;;11.60;99.90;;;;;;4863584;29;20045;-88
2023/04/17 23:12:02;;;;;;;3.78;1.77;;;11.60;99.90;;;;;;4864233;29;20479;-89
2023/04/17 23:14:29;;;;;;;4.88;1.90;;;11.50;99.90;;;;;;4864122;29;20033;-91
2023/04/17 23:16:56;;;;;;;5.50;2.10;;;11.50;99.90;;;;;;4864036;29;20033;-91
2023/04/17 23:19:22;;;;;;;6.07;2.08;;;11.50;99.90;;;;;;4864144;29;20093;-90
2023/04/17 23:21:49;;;;;;;4.35;2.38;;;11.40;99.90;;;;;;4863967;29;20427;-89
2023/04/17 23:24:15;;;;;;;6.97;1.90;;;11.40;99.90;;;;;;4864005;29;20085;-89
2023/04/17 23:26:43;;;;;;;8.55;2.40;;;11.40;99.90;;;;;;4863693;29;20033;-90
2023/04/17 23:29:10;;;;;;;7.47;1.95;;;11.30;99.90;;;;;;4863840;29;20483;-91
2023/04/17 23:31:37;;;;;;;3.05;2.08;;;11.30;99.90;;;;;;4863991;29;20479;-89
2023/04/17 23:34:04;;;;;;;7.15;1.98;;;11.30;99.90;;;;;;4863512;29;20136;-90
2023/04/17 23:36:30;;;;;;;3.63;1.80;;;11.20;99.90;;;;;;4863878;29;20113;-90
2023/04/17 23:38:57;;;;;;;4.85;1.85;;;11.20;99.90;;;;;;4863980;29;20104;-90
2023/04/17 23:41:25;;;;;;;8.60;2.10;;;11.20;99.90;;;;;;4863716;29;20558;-89
2023/04/17 23:43:54;;;;;;;5.13;1.95;;;11.20;99.90;;;;;;4863889;29;20037;-90
2023/04/17 23:46:21;;;;;;;4.57;2.65;;;11.20;99.90;;;;;;4863567;29;20053;-92
2023/04/17 23:48:48;;;;;;;12.07;2.13;;;11.10;99.90;;;;;;4863797;29;20092;-89
2023/04/17 23:51:14;;;;;;;11.02;2.90;;;11.10;99.90;;;;;;4863719;29;20076;-91
2023/04/17 23:53:41;;;;;;;7.72;2.55;;;11.20;99.90;;;;;;4863767;29;20033;-91
2023/04/17 23:56:07;;;;;;;6.88;2.40;;;11.10;99.90;;;;;;4863649;29;20029;-89
2023/04/17 23:58:34;;;;;;;8.07;2.28;;;11.20;99.90;;;;;;4863698;29;20499;-89
